Time;durP1;ratioP1;P1;durP2;ratioP2;P2;SDS_P1;SDS_P2;PMS_P1;PMS_P2;Temp;Humidity;BMP_temperature;BMP_pressure;BME280_temperature;BME280_humidity;BME280_pressure;Samples;Min_cycle;Max_cycle;Signal;HPM_P1;HPM_P2
2021/06/08 00:01:16;;;;;;;15.07;11.73;;;;;;;-143.98;100.00;68091.63;5040513;28;20113;-83
2021/06/08 00:03:44;;;;;;;18.85;12.43;;;;;;;-143.98;100.00;68091.63;5024494;28;20338;-83
2021/06/08 00:06:10;;;;;;;14.20;12.32;;;;;;;-143.98;100.00;68091.63;5040943;28;20053;-83
2021/06/08 00:08:56;;;;;;;16.40;12.13;;;;;;;-143.98;100.00;68091.63;5041663;28;20057;-82
2021/06/08 00:11:22;;;;;;;18.67;12.65;;;;;;;-143.98;100.00;68091.63;5040581;28;20076;-82
2021/06/08 00:13:49;;;;;;;18.75;13.45;;;;;;;-143.98;100.00;68091.63;5024543;28;20059;-82
2021/06/08 00:16:17;;;;;;;19.15;12.95;;;;;;;-143.98;100.00;68091.63;5039722;28;20081;-82
2021/06/08 00:18:56;;;;;;;16.60;12.20;;;;;;;-143.98;100.00;68091.63;5041399;28;20061;-82
2021/06/08 00:21:26;;;;;;;18.80;14.27;;;;;;;-143.98;100.00;68091.63;5040686;28;20165;-83
2021/06/08 00:23:53;;;;;;;21.05;14.60;;;;;;;-143.98;100.00;68091.63;5024629;28;20135;-82
2021/06/08 00:26:19;;;;;;;21.33;14.35;;;;;;;-143.98;100.00;68091.63;5041493;28;20076;-82
2021/06/08 00:28:47;;;;;;;17.85;14.63;;;;;;;-143.98;100.00;68091.63;5039757;28;20049;-82
2021/06/08 00:31:15;;;;;;;17.25;14.45;;;;;;;-143.98;100.00;68091.63;5023699;28;20053;-82
2021/06/08 00:33:47;;;;;;;20.40;14.95;;;;;;;-143.98;100.00;68091.63;5024726;28;20057;-82
2021/06/08 00:36:23;;;;;;;20.13;14.73;;;;;;;-143.98;100.00;68091.63;5024645;28;20053;-82
2021/06/08 00:38:50;;;;;;;22.10;14.40;;;;;;;-143.98;100.00;68091.63;5023213;28;20091;-82
2021/06/08 00:41:19;;;;;;;18.98;15.07;;;;;;;-143.98;100.00;68091.63;5022769;28;20053;-82
2021/06/08 00:43:46;;;;;;;20.40;14.27;;;;;;;-143.98;100.00;68091.63;5039477;28;20395;-82
2021/06/08 00:46:13;;;;;;;22.20;17.10;;;;;;;-143.98;100.00;68091.63;5040275;28;20045;-82
2021/06/08 00:48:40;;;;;;;21.88;16.00;;;;;;;-143.98;100.00;68091.63;5030267;28;20053;-82
2021/06/08 00:51:06;;;;;;;21.88;15.85;;;;;;;-143.98;100.00;68091.63;5028150;28;20233;-83
2021/06/08 00:53:43;;;;;;;20.83;16.75;;;;;;;-143.98;100.00;68091.63;5025225;28;20154;-82
2021/06/08 00:56:09;;;;;;;20.63;15.80;;;;;;;-143.98;100.00;68091.63;5004936;28;20053;-82
2021/06/08 00:58:36;;;;;;;22.17;16.08;;;;;;;-143.98;100.00;68091.63;5015982;28;20068;-83
2021/06/08 01:01:09;;;;;;;24.58;19.10;;;;;;;-143.98;100.00;68091.63;5053177;28;20064;-82
2021/06/08 01:03:36;;;;;;;25.63;18.90;;;;;;;-143.98;100.00;68091.63;5032699;28;20101;-82
2021/06/08 01:06:09;;;;;;;23.42;17.50;;;;;;;-143.98;100.00;68091.63;5020580;28;20064;-83
2021/06/08 01:08:36;;;;;;;23.20;16.20;;;;;;;-143.98;100.00;68091.63;5002967;28;20064;-81
2021/06/08 01:11:03;;;;;;;20.95;16.55;;;;;;;-143.98;100.00;68091.63;5019316;28;20054;-82
2021/06/08 01:13:30;;;;;;;22.33;17.55;;;;;;;-143.98;100.00;68091.63;5002845;28;20058;-83
2021/06/08 01:16:06;;;;;;;24.17;17.85;;;;;;;-143.98;100.00;68091.63;5002959;28;20058;-82
2021/06/08 01:18:33;;;;;;;24.13;17.90;;;;;;;-143.98;100.00;68091.63;5020110;28;20061;-82
2021/06/08 01:21:13;;;;;;;24.83;17.70;;;;;;;-143.98;100.00;68091.63;5019135;28;20060;-82
2021/06/08 01:23:42;;;;;;;25.60;18.48;;;;;;;-143.98;100.00;68091.63;5003641;28;20058;-82
2021/06/08 01:26:09;;;;;;;24.13;17.60;;;;;;;-143.98;100.00;68091.63;5003125;28;20054;-82
2021/06/08 01:28:40;;;;;;;26.85;18.88;;;;;;;-143.98;100.00;68091.63;5002939;28;20062;-82
2021/06/08 01:31:20;;;;;;;27.75;18.77;;;;;;;-143.98;100.00;68091.63;5001660;28;20061;-82
2021/06/08 01:33:47;;;;;;;27.25;18.20;;;;;;;-143.98;100.00;68091.63;5001959;28;20089;-82
2021/06/08 01:36:17;;;;;;;27.17;17.83;;;;;;;-143.98;100.00;68091.63;4999879;28;20301;-82
2021/06/08 01:38:54;;;;;;;31.80;19.17;;;;;;;-143.98;100.00;68091.63;5018770;28;20053;-82
2021/06/08 01:41:24;;;;;;;25.88;17.45;;;;;;;-143.98;100.00;68091.63;5017830;28;20050;-82
2021/06/08 01:43:52;;;;;;;24.02;18.45;;;;;;;-143.98;100.00;68091.63;5018040;28;20062;-82
2021/06/08 01:46:20;;;;;;;24.95;18.42;;;;;;;-143.98;100.00;68091.63;5001762;28;20065;-82
2021/06/08 01:48:48;;;;;;;32.22;20.95;;;;;;;-143.98;100.00;68091.63;5018756;28;20446;-82
2021/06/08 01:51:46;;;;;;;30.17;19.48;;;;;;;-143.98;100.00;68091.63;5018246;28;20060;-81
2021/06/08 01:54:13;;;;;;;30.40;20.95;;;;;;;-143.98;100.00;68091.63;5022393;28;20140;-81
2021/06/08 01:57:00;;;;;;;31.98;22.13;;;;;;;-143.98;100.00;68091.63;5024561;28;20084;-82
2021/06/08 01:59:31;;;;;;;32.22;20.92;;;;;;;-143.98;100.00;68091.63;5007153;28;20057;-81
2021/06/08 02:02:17;;;;;;;30.75;22.60;;;;;;;-143.98;100.00;68091.63;5023932;28;20113;-81
2021/06/08 02:05:03;;;;;;;32.92;21.92;;;;;;;-143.98;100.00;68091.63;5024215;28;20062;-81
2021/06/08 02:07:30;;;;;;;33.65;23.17;;;;;;;-143.98;100.00;68091.63;5008404;28;20064;-81
2021/06/08 02:10:38;;;;;;;32.13;23.10;;;;;;;-143.98;100.00;68091.63;5030412;28;20076;-81
2021/06/08 02:13:24;;;;;;;36.72;23.38;;;;;;;-143.98;100.00;68091.63;5026498;28;20142;-81
2021/06/08 02:15:58;;;;;;;32.00;22.10;;;;;;;-143.98;100.00;68091.63;5040003;28;20049;-81
2021/06/08 02:18:29;;;;;;;34.08;24.17;;;;;;;-143.98;100.00;68091.63;5005306;28;20066;-81
2021/06/08 02:23:52;;;;;;;30.83;21.88;;;;;;;-143.98;100.00;68091.63;5020974;28;20064;-81
2021/06/08 02:26:20;;;;;;;31.67;21.67;;;;;;;-143.98;100.00;68091.63;5033048;28;20046;-81
2021/06/08 02:28:55;;;;;;;33.35;23.38;;;;;;;-143.98;100.00;68091.63;5005787;28;20049;-81
2021/06/08 02:31:23;;;;;;;36.38;24.80;;;;;;;-143.98;100.00;68091.63;5022816;28;20399;-81
2021/06/08 02:33:51;;;;;;;38.28;25.08;;;;;;;-143.98;100.00;68091.63;5016205;28;20132;-81
2021/06/08 02:36:19;;;;;;;31.40;22.88;;;;;;;-143.98;100.00;68091.63;5020319;28;20054;-81
2021/06/08 02:38:53;;;;;;;31.02;22.27;;;;;;;-143.98;100.00;68091.63;5005225;28;20053;-81
2021/06/08 02:41:20;;;;;;;30.85;22.23;;;;;;;-143.98;100.00;68091.63;5004273;28;20053;-81
2021/06/08 02:43:48;;;;;;;33.50;21.88;;;;;;;-143.98;100.00;68091.63;5005166;28;20253;-81
2021/06/08 02:46:15;;;;;;;34.45;23.90;;;;;;;-143.98;100.00;68091.63;5020235;28;20054;-81
2021/06/08 02:48:49;;;;;;;32.80;23.50;;;;;;;-143.98;100.00;68091.63;5021027;28;20101;-82
2021/06/08 02:51:15;;;;;;;34.38;22.42;;;;;;;-143.98;100.00;68091.63;5004074;28;20388;-82
2021/06/08 02:53:46;;;;;;;30.27;22.50;;;;;;;-143.98;100.00;68091.63;5013772;28;20060;-82
2021/06/08 02:56:13;;;;;;;35.08;23.55;;;;;;;-143.98;100.00;68091.63;5040719;28;20060;-82
2021/06/08 02:58:46;;;;;;;38.95;24.38;;;;;;;-143.98;100.00;68091.63;5040362;28;20077;-82
2021/06/08 03:01:15;;;;;;;34.05;23.33;;;;;;;-143.98;100.00;68091.63;5040923;28;20045;-82
2021/06/08 03:03:43;;;;;;;38.85;27.15;;;;;;;-143.98;100.00;68091.63;5023856;28;20436;-82
2021/06/08 03:06:25;;;;;;;38.05;23.95;;;;;;;-143.98;100.00;68091.63;5040873;28;20053;-82
2021/06/08 03:09:03;;;;;;;34.88;25.92;;;;;;;-143.98;100.00;68091.63;5043277;28;20064;-82
2021/06/08 03:11:38;;;;;;;34.55;23.15;;;;;;;-143.98;100.00;68091.63;5042715;28;20315;-82
2021/06/08 03:14:13;;;;;;;35.38;23.58;;;;;;;-143.98;100.00;68091.63;5039774;28;20057;-81
2021/06/08 03:16:45;;;;;;;36.15;25.33;;;;;;;-143.98;100.00;68091.63;5040129;28;20076;-81
2021/06/08 03:19:15;;;;;;;34.75;25.50;;;;;;;-143.98;100.00;68091.63;5040146;28;20140;-83
2021/06/08 03:21:42;;;;;;;39.15;25.15;;;;;;;-143.98;100.00;68091.63;5039396;28;20050;-81
2021/06/08 03:24:13;;;;;;;44.60;26.42;;;;;;;-143.98;100.00;68091.63;5021242;28;20072;-82
2021/06/08 03:26:42;;;;;;;43.65;26.80;;;;;;;-143.98;100.00;68091.63;5018934;28;20396;-82
2021/06/08 03:29:11;;;;;;;42.17;28.02;;;;;;;-143.98;100.00;68091.63;5021182;28;20050;-82
2021/06/08 03:31:42;;;;;;;42.95;27.73;;;;;;;-143.98;100.00;68091.63;5020785;28;20073;-82
2021/06/08 03:34:15;;;;;;;35.67;25.80;;;;;;;-143.98;100.00;68091.63;5019552;28;20097;-82
2021/06/08 03:36:53;;;;;;;41.80;28.27;;;;;;;-143.98;100.00;68091.63;5020654;28;20117;-82
2021/06/08 03:39:24;;;;;;;44.13;28.23;;;;;;;-143.98;100.00;68091.63;5018344;28;20061;-83
2021/06/08 03:41:52;;;;;;;39.00;28.17;;;;;;;-143.98;100.00;68091.63;5017895;28;20053;-82
2021/06/08 03:44:20;;;;;;;40.72;28.10;;;;;;;-143.98;100.00;68091.63;5001874;28;20109;-83
2021/06/08 03:46:48;;;;;;;42.53;28.83;;;;;;;-143.98;100.00;68091.63;5018456;28;20061;-82
2021/06/08 03:49:17;;;;;;;44.13;30.90;;;;;;;-143.98;100.00;68091.63;5020950;28;20045;-83
2021/06/08 03:51:45;;;;;;;39.00;27.48;;;;;;;-143.98;100.00;68091.63;5019143;28;20064;-83
2021/06/08 03:54:12;;;;;;;45.45;30.42;;;;;;;-143.98;100.00;68091.63;5003134;28;20046;-82
2021/06/08 03:56:43;;;;;;;45.17;30.02;;;;;;;-143.98;100.00;68091.63;5017886;28;20050;-82
2021/06/08 03:59:11;;;;;;;44.20;30.88;;;;;;;-143.98;100.00;68091.63;5017421;28;20045;-83
2021/06/08 04:01:38;;;;;;;44.92;29.42;;;;;;;-143.98;100.00;68091.63;5000783;28;20050;-82
2021/06/08 04:04:07;;;;;;;44.33;30.75;;;;;;;-143.98;100.00;68091.63;5001000;28;20053;-82
2021/06/08 04:06:34;;;;;;;42.95;30.15;;;;;;;-143.98;100.00;68091.63;5000615;28;20191;-82
2021/06/08 04:09:07;;;;;;;47.95;31.08;;;;;;;-143.98;100.00;68091.63;5016780;28;20088;-82
2021/06/08 04:11:35;;;;;;;43.38;30.05;;;;;;;-143.98;100.00;68091.63;5017793;28;20115;-84
2021/06/08 04:14:03;;;;;;;38.85;28.58;;;;;;;-143.98;100.00;68091.63;5000794;28;20082;-82
2021/06/08 04:16:33;;;;;;;45.17;30.73;;;;;;;-143.98;100.00;68091.63;5023525;28;20064;-82
2021/06/08 04:19:00;;;;;;;46.42;32.95;;;;;;;-143.98;100.00;68091.63;5024472;28;20057;-82
2021/06/08 04:21:27;;;;;;;42.17;28.90;;;;;;;-143.98;100.00;68091.63;5046652;28;20080;-82
2021/06/08 04:23:58;;;;;;;44.08;29.75;;;;;;;-143.98;100.00;68091.63;5038129;28;20103;-82
2021/06/08 04:26:29;;;;;;;43.00;29.33;;;;;;;-143.98;100.00;68091.63;5037654;28;20199;-82
2021/06/08 04:28:56;;;;;;;42.75;29.30;;;;;;;-143.98;100.00;68091.63;5036006;28;20064;-82
2021/06/08 04:31:24;;;;;;;43.75;29.35;;;;;;;-143.98;100.00;68091.63;5021339;28;20064;-82
2021/06/08 04:34:18;;;;;;;43.03;29.65;;;;;;;-143.98;100.00;68091.63;5036913;28;20108;-83
2021/06/08 04:40:16;;;;;;;34.88;26.23;;;;;;;-143.98;100.00;68091.63;5033130;28;20121;-83
2021/06/08 04:42:49;;;;;;;42.80;28.33;;;;;;;-143.98;100.00;68091.63;5051872;28;20084;-82
2021/06/08 04:45:16;;;;;;;38.53;27.40;;;;;;;-143.98;100.00;68091.63;5031919;28;20078;-83
2021/06/08 04:47:45;;;;;;;36.28;23.27;;;;;;;-143.98;100.00;68091.63;5017320;28;20077;-83
2021/06/08 04:50:15;;;;;;;35.22;24.02;;;;;;;-143.98;100.00;68091.63;5015900;28;20351;-83
2021/06/08 04:52:55;;;;;;;32.55;22.88;;;;;;;-143.98;100.00;68091.63;5026784;28;20045;-83
2021/06/08 04:55:24;;;;;;;33.25;22.77;;;;;;;-143.98;100.00;68091.63;5048371;28;20104;-83
2021/06/08 05:01:25;;;;;;;27.85;21.08;;;;;;;-143.98;100.00;68091.63;5149255;22;20235;-83
2021/06/08 05:03:57;;;;;;;30.88;22.40;;;;;;;-143.98;100.00;68091.63;5039576;28;20068;-83
2021/06/08 05:06:37;;;;;;;31.48;21.23;;;;;;;-143.98;100.00;68091.63;5039027;28;20065;-83
2021/06/08 05:09:12;;;;;;;31.23;20.60;;;;;;;-143.98;100.00;68091.63;5039821;28;20068;-81
2021/06/08 05:11:58;;;;;;;27.92;20.40;;;;;;;-143.98;100.00;68091.63;5062742;28;20052;-82
2021/06/08 05:14:27;;;;;;;24.08;18.08;;;;;;;-143.98;100.00;68091.63;5024044;28;20079;-83
2021/06/08 05:16:55;;;;;;;25.02;18.13;;;;;;;-143.98;100.00;68091.63;5021338;28;20457;-83
2021/06/08 05:19:22;;;;;;;25.55;18.00;;;;;;;-143.98;100.00;68091.63;5038878;28;20052;-83
2021/06/08 05:21:49;;;;;;;22.25;18.33;;;;;;;-143.98;100.00;68091.63;5038852;28;20053;-83
2021/06/08 05:24:16;;;;;;;22.75;17.73;;;;;;;-143.98;100.00;68091.63;5042183;28;20059;-83
2021/06/08 05:26:51;;;;;;;27.92;17.35;;;;;;;-143.98;100.00;68091.63;5040441;28;20161;-82
2021/06/08 05:29:20;;;;;;;22.65;16.77;;;;;;;-143.98;100.00;68091.63;5029132;28;20477;-82
2021/06/08 05:31:47;;;;;;;22.80;17.60;;;;;;;-143.98;100.00;68091.63;5029686;28;20056;-84
2021/06/08 05:34:33;;;;;;;25.67;18.00;;;;;;;-143.98;100.00;68091.63;5042780;28;20080;-82
2021/06/08 05:37:07;;;;;;;26.10;16.80;;;;;;;-143.98;100.00;68091.63;5027922;28;20373;-84
2021/06/08 05:39:35;;;;;;;25.80;17.27;;;;;;;-143.98;100.00;68091.63;5028302;28;20106;-83
2021/06/08 05:42:02;;;;;;;23.38;16.23;;;;;;;-143.98;100.00;68091.63;5025015;28;20063;-82
2021/06/08 05:44:29;;;;;;;21.20;14.95;;;;;;;-143.98;100.00;68091.63;5040858;28;20049;-82
2021/06/08 05:46:59;;;;;;;22.65;15.73;;;;;;;-143.98;100.00;68091.63;5023445;28;20045;-83
2021/06/08 05:49:26;;;;;;;20.38;15.68;;;;;;;-143.98;100.00;68091.63;5039679;28;20143;-83
2021/06/08 05:52:00;;;;;;;20.27;15.15;;;;;;;-143.98;100.00;68091.63;5040325;28;20071;-83
2021/06/08 05:54:27;;;;;;;21.38;16.25;;;;;;;-143.98;100.00;68091.63;5039671;28;20045;-83
2021/06/08 05:56:56;;;;;;;22.20;15.68;;;;;;;-143.98;100.00;68091.63;5039648;28;20158;-83
2021/06/08 05:59:24;;;;;;;19.92;14.60;;;;;;;-143.98;100.00;68091.63;5023394;28;20094;-83
2021/06/08 06:01:51;;;;;;;24.40;14.18;;;;;;;-143.98;100.00;68091.63;5038940;28;20064;-83
2021/06/08 06:04:20;;;;;;;19.00;14.43;;;;;;;-143.98;100.00;68091.63;5038551;28;20082;-84
2021/06/08 06:06:48;;;;;;;21.60;14.80;;;;;;;-143.98;100.00;68091.63;5040739;28;20053;-84
2021/06/08 06:09:21;;;;;;;17.80;13.15;;;;;;;-143.98;100.00;68091.63;5022005;28;20376;-84
2021/06/08 06:11:53;;;;;;;17.92;13.43;;;;;;;-143.98;100.00;68091.63;5023204;28;20147;-83
2021/06/08 06:14:23;;;;;;;21.40;13.70;;;;;;;-143.98;100.00;68091.63;5038406;28;20095;-82
2021/06/08 06:16:53;;;;;;;18.13;12.73;;;;;;;-143.98;100.00;68091.63;5043187;28;20437;-83
2021/06/08 06:20:01;;;;;;;17.95;12.15;;;;;;;-143.98;100.00;68091.63;5040230;28;20079;-83
2021/06/08 06:22:27;;;;;;;;;;;;;;;-143.98;100.00;68091.63;5039594;28;20049;-84
2021/06/08 06:24:54;;;;;;;19.83;13.45;;;;;;;-143.98;100.00;68091.63;5021071;28;19925;-83
2021/06/08 06:27:21;;;;;;;19.02;14.02;;;;;;;-143.98;100.00;68091.63;5018368;28;20065;-83
2021/06/08 06:29:50;;;;;;;14.55;11.80;;;;;;;-143.98;100.00;68091.63;5019359;28;20336;-84
2021/06/08 06:32:20;;;;;;;17.65;10.95;;;;;;;-143.98;100.00;68091.63;5005073;28;20061;-82
2021/06/08 06:34:47;;;;;;;15.98;9.60;;;;;;;-143.98;100.00;68091.63;5036547;28;20057;-83
2021/06/08 06:37:20;;;;;;;14.00;9.95;;;;;;;-143.98;100.00;68091.63;5022087;28;20412;-83
2021/06/08 06:39:47;;;;;;;10.00;8.43;;;;;;;-143.98;100.00;68091.63;5053632;28;20158;-83
2021/06/08 06:42:15;;;;;;;16.25;8.98;;;;;;;-143.98;100.00;68091.63;5057607;28;20106;-83
2021/06/08 06:44:42;;;;;;;16.85;9.90;;;;;;;-143.98;100.00;68091.63;5040977;28;20049;-82
2021/06/08 06:47:09;;;;;;;16.33;8.32;;;;;;;-143.98;100.00;68091.63;5040663;28;20233;-83
2021/06/08 06:49:37;;;;;;;11.45;9.13;;;;;;;-143.98;100.00;68091.63;5039752;28;20049;-83
2021/06/08 06:52:04;;;;;;;14.32;9.25;;;;;;;-143.98;100.00;68091.63;5040394;28;20338;-83
2021/06/08 06:54:31;;;;;;;16.13;9.05;;;;;;;-143.98;100.00;68091.63;5039916;28;20079;-83
2021/06/08 06:57:02;;;;;;;11.77;7.32;;;;;;;-143.98;100.00;68091.63;5024357;28;20410;-83
2021/06/08 06:59:29;;;;;;;15.90;8.73;;;;;;;-143.98;100.00;68091.63;5042348;28;20057;-83
2021/06/08 07:01:56;;;;;;;12.48;7.47;;;;;;;-143.98;100.00;68091.63;5024587;28;20048;-82
2021/06/08 07:04:24;;;;;;;13.10;7.40;;;;;;;-143.98;100.00;68091.63;5022984;28;20089;-84
2021/06/08 07:06:55;;;;;;;9.57;7.18;;;;;;;-143.98;100.00;68091.63;5022129;28;20091;-84
2021/06/08 07:09:25;;;;;;;15.68;7.80;;;;;;;-143.98;100.00;68091.63;5018475;28;20045;-84
2021/06/08 07:11:53;;;;;;;11.63;7.30;;;;;;;-143.98;100.00;68091.63;5037938;28;20060;-84
2021/06/08 07:14:27;;;;;;;8.23;6.38;;;;;;;-143.98;100.00;68091.63;5024211;28;20231;-83
2021/06/08 07:16:54;;;;;;;9.70;6.40;;;;;;;-143.98;100.00;68091.63;5023693;28;20060;-82
2021/06/08 07:19:24;;;;;;;10.45;6.78;;;;;;;-143.98;100.00;68091.63;5018021;28;20220;-82
2021/06/08 07:21:51;;;;;;;10.90;7.05;;;;;;;-143.98;100.00;68091.63;5019831;28;20064;-82
2021/06/08 07:24:25;;;;;;;10.75;7.00;;;;;;;-143.98;100.00;68091.63;5024126;28;20056;-84
2021/06/08 07:26:53;;;;;;;10.30;6.90;;;;;;;-143.98;100.00;68091.63;5058809;28;20052;-83
2021/06/08 07:29:20;;;;;;;8.20;7.13;;;;;;;-143.98;100.00;68091.63;5021691;28;20147;-83
2021/06/08 07:31:58;;;;;;;10.63;6.40;;;;;;;-143.98;100.00;68091.63;5023256;28;20071;-82
2021/06/08 07:34:35;;;;;;;8.68;6.30;;;;;;;-143.98;100.00;68091.63;5050285;28;20045;-84
2021/06/08 07:37:02;;;;;;;9.40;6.30;;;;;;;-143.98;100.00;68091.63;5038357;28;20121;-83
2021/06/08 07:39:40;;;;;;;10.80;7.63;;;;;;;-143.98;100.00;68091.63;5027762;28;20126;-84
2021/06/08 07:42:38;;;;;;;9.80;6.80;;;;;;;-143.98;100.00;68091.63;5025505;28;20237;-83
2021/06/08 07:45:31;;;;;;;11.05;7.53;;;;;;;-143.98;100.00;68091.63;5019011;28;20102;-84
2021/06/08 07:48:00;;;;;;;9.30;6.72;;;;;;;-143.98;100.00;68091.63;5025893;28;20087;-85
2021/06/08 07:50:33;;;;;;;10.57;6.47;;;;;;;-143.98;100.00;68091.63;5024135;28;20222;-82
2021/06/08 07:53:02;;;;;;;9.73;6.85;;;;;;;-143.98;100.00;68091.63;5023113;28;20049;-84
2021/06/08 07:55:33;;;;;;;12.73;7.30;;;;;;;-143.98;100.00;68091.63;5023752;28;20479;-83
2021/06/08 07:57:59;;;;;;;9.30;6.78;;;;;;;-143.98;100.00;68091.63;5054296;28;20407;-84
2021/06/08 08:00:28;;;;;;;10.55;6.43;;;;;;;-143.98;100.00;68091.63;5017381;28;20435;-85
2021/06/08 08:03:24;;;;;;;10.93;6.70;;;;;;;-143.98;100.00;68091.63;5033277;28;20056;-83
2021/06/08 08:05:47;;;;;;;12.68;6.75;;;;;;;-143.98;100.00;68091.63;5034592;28;20135;-83
2021/06/08 08:08:24;;;;;;;8.55;6.60;;;;;;;-143.98;100.00;68091.63;5018286;28;20284;-82
2021/06/08 08:10:51;;;;;;;9.80;5.97;;;;;;;-143.98;100.00;68091.63;5020986;28;20132;-82
2021/06/08 08:13:23;;;;;;;15.40;5.65;;;;;;;-143.98;100.00;68091.63;5036901;28;20109;-84
2021/06/08 08:16:04;;;;;;;8.45;5.97;;;;;;;-143.98;100.00;68091.63;5020843;28;20053;-83
2021/06/08 08:18:33;;;;;;;7.15;5.38;;;;;;;-143.98;100.00;68091.63;5030840;28;20140;-83
2021/06/08 08:21:08;;;;;;;9.13;5.07;;;;;;;-143.98;100.00;68091.63;5014259;28;20049;-84
2021/06/08 08:23:37;;;;;;;13.65;6.93;;;;;;;-143.98;100.00;68091.63;5016340;28;20219;-84
2021/06/08 08:26:09;;;;;;;11.85;6.10;;;;;;;-143.98;100.00;68091.63;4999137;28;20049;-84
2021/06/08 08:28:40;;;;;;;11.45;6.13;;;;;;;-143.98;100.00;68091.63;5000585;28;20050;-86
2021/06/08 08:31:22;;;;;;;11.50;5.95;;;;;;;-143.98;100.00;68091.63;5028632;28;20049;-84
2021/06/08 08:33:52;;;;;;;11.82;6.40;;;;;;;-143.98;100.00;68091.63;5020261;28;20049;-84
2021/06/08 08:36:18;;;;;;;6.45;4.60;;;;;;;-143.98;100.00;68091.63;5018528;28;20046;-82
2021/06/08 08:38:45;;;;;;;6.40;4.72;;;;;;;-143.98;100.00;68091.63;5035064;28;20427;-83
2021/06/08 08:41:16;;;;;;;7.82;4.47;;;;;;;-143.98;100.00;68091.63;5037134;28;20041;-83
2021/06/08 08:43:45;;;;;;;6.53;4.57;;;;;;;-143.98;100.00;68091.63;5032906;28;20045;-84
2021/06/08 08:46:12;;;;;;;9.93;5.05;;;;;;;-143.98;100.00;68091.63;5024951;28;20060;-84
2021/06/08 08:48:43;;;;;;;8.10;5.10;;;;;;;-143.98;100.00;68091.63;5018705;28;20226;-84
2021/06/08 08:51:16;;;;;;;8.13;4.10;;;;;;;-143.98;100.00;68091.63;5020200;28;20082;-84
2021/06/08 08:53:43;;;;;;;5.60;3.63;;;;;;;-143.98;100.00;68091.63;5035322;28;20045;-83
2021/06/08 08:56:38;;;;;;;6.63;4.63;;;;;;;-143.98;100.00;68091.63;5021308;28;20103;-84
2021/06/08 08:59:19;;;;;;;7.57;4.68;;;;;;;-143.98;100.00;68091.63;5032778;28;20076;-84
2021/06/08 09:01:49;;;;;;;10.65;4.47;;;;;;;-143.98;100.00;68091.63;5018470;28;20068;-84
2021/06/08 09:04:17;;;;;;;5.60;4.10;;;;;;;-143.98;100.00;68091.63;5018690;28;20057;-84
2021/06/08 09:06:44;;;;;;;9.10;5.07;;;;;;;-143.98;100.00;68091.63;5030057;28;20053;-84
2021/06/08 09:09:14;;;;;;;9.13;4.72;;;;;;;-143.98;100.00;68091.63;5023652;28;20049;-87
2021/06/08 09:11:42;;;;;;;8.00;4.65;;;;;;;-143.98;100.00;68091.63;5041071;28;20115;-84
2021/06/08 09:14:13;;;;;;;7.93;4.82;;;;;;;-143.98;100.00;68091.63;5019251;28;20140;-83
2021/06/08 09:19:58;;;;;;;6.35;4.30;;;;;;;-143.98;100.00;68091.63;5017580;28;20097;-84
2021/06/08 09:23:15;;;;;;;11.50;4.57;;;;;;;-143.98;100.00;68091.63;5017229;28;20045;-83
2021/06/08 09:25:46;;;;;;;7.97;4.40;;;;;;;-143.98;100.00;68091.63;5029704;28;20053;-83
2021/06/08 09:28:44;;;;;;;9.68;4.35;;;;;;;-143.98;100.00;68091.63;5036879;28;20049;-83
2021/06/08 09:31:20;;;;;;;7.75;4.60;;;;;;;-143.98;100.00;68091.63;5011011;28;20077;-84
2021/06/08 09:33:58;;;;;;;7.05;3.92;;;;;;;-143.98;100.00;68091.63;5020519;28;20045;-84
2021/06/08 09:36:28;;;;;;;5.63;3.50;;;;;;;-143.98;100.00;68091.63;5027641;28;20049;-84
2021/06/08 09:39:00;;;;;;;7.63;3.28;;;;;;;-143.98;100.00;68091.63;5013580;28;20090;-84
2021/06/08 09:41:49;;;;;;;8.00;3.95;;;;;;;-143.98;100.00;68091.63;5017716;28;20462;-83
2021/06/08 09:44:18;;;;;;;8.10;4.03;;;;;;;-143.98;100.00;68091.63;5040480;28;20045;-84
2021/06/08 09:47:29;;;;;;;7.03;3.28;;;;;;;-143.98;100.00;68091.63;5024797;28;20054;-84
2021/06/08 09:49:57;;;;;;;5.53;3.78;;;;;;;-143.98;100.00;68091.63;5032359;28;20111;-84
2021/06/08 09:52:24;;;;;;;6.05;3.88;;;;;;;-143.98;100.00;68091.63;5035563;28;20049;-84
2021/06/08 09:54:56;;;;;;;5.55;3.88;;;;;;;-143.98;100.00;68091.63;5018478;28;20359;-85
2021/06/08 09:57:28;;;;;;;5.57;3.67;;;;;;;-143.98;100.00;68091.63;5018482;28;20041;-85
2021/06/08 10:00:21;;;;;;;5.95;3.67;;;;;;;-143.98;100.00;68091.63;5048506;28;20050;-85
2021/06/08 10:03:46;;;;;;;4.80;3.28;;;;;;;-143.98;100.00;68091.63;5017962;28;20054;-85
2021/06/08 10:06:35;;;;;;;4.45;3.30;;;;;;;-143.98;100.00;68091.63;5008869;28;20050;-85
2021/06/08 10:09:10;;;;;;;6.00;3.60;;;;;;;-143.98;100.00;68091.63;4981017;28;20234;-84
2021/06/08 10:11:39;;;;;;;7.95;3.75;;;;;;;-143.98;100.00;68091.63;4998146;28;21173;-84
2021/06/08 10:14:12;;;;;;;5.53;3.78;;;;;;;-143.98;100.00;68091.63;5000659;28;20055;-83
2021/06/08 10:16:39;;;;;;;4.55;3.58;;;;;;;-143.98;100.00;68091.63;5000559;28;20066;-85
2021/06/08 10:19:24;;;;;;;6.05;3.22;;;;;;;-143.98;100.00;68091.63;4983612;28;20157;-84
2021/06/08 10:21:54;;;;;;;3.85;3.30;;;;;;;-143.98;100.00;68091.63;5002794;28;20327;-85
2021/06/08 10:24:24;;;;;;;11.77;4.78;;;;;;;-143.98;100.00;68091.63;5015724;28;20458;-85
2021/06/08 10:26:54;;;;;;;8.95;3.95;;;;;;;-143.98;100.00;68091.63;5021807;28;20603;-86
2021/06/08 10:29:30;;;;;;;6.53;4.25;;;;;;;-143.98;100.00;68091.63;5001757;28;20072;-85
2021/06/08 10:32:00;;;;;;;8.50;3.75;;;;;;;-143.98;100.00;68091.63;5011387;28;20045;-84
2021/06/08 10:34:52;;;;;;;5.60;3.20;;;;;;;-143.98;100.00;68091.63;5011245;28;20046;-85
2021/06/08 10:37:22;;;;;;;9.25;4.75;;;;;;;-143.98;100.00;68091.63;5010327;28;20057;-85
2021/06/08 10:39:49;;;;;;;9.65;4.88;;;;;;;-143.98;100.00;68091.63;5001926;28;20061;-86
2021/06/08 10:42:16;;;;;;;10.38;4.05;;;;;;;44.38;15.51;102255.03;5005972;28;20057;-86
2021/06/08 10:44:48;;;;;;;5.13;3.60;;;;;;;44.58;15.65;102257.41;5001748;28;20058;-84
2021/06/08 10:47:42;;;;;;;6.38;3.90;;;;;;;43.81;15.97;102251.09;5007321;28;20450;-85
2021/06/08 10:50:32;;;;;;;6.53;3.85;;;;;;;44.14;15.78;102253.34;5011051;28;20061;-85
2021/06/08 10:52:59;;;;;;;10.13;3.80;;;;;;;44.47;15.60;102252.81;4996731;28;20046;-86
2021/06/08 10:55:38;;;;;;;6.55;3.38;;;;;;;44.58;15.17;102249.25;5027333;28;20061;-85
2021/06/08 10:58:06;;;;;;;10.27;3.78;;;;;;;44.62;15.42;102252.34;5027727;28;20046;-86
2021/06/08 11:00:41;;;;;;;7.95;4.63;;;;;;;43.72;15.50;102250.59;5012773;28;20246;-85
2021/06/08 11:04:06;;;;;;;5.80;4.22;;;;;;;40.87;19.43;102252.75;5043818;28;20057;-84
2021/06/08 11:06:37;;;;;;;4.47;3.95;;;;;;;42.68;16.95;102252.44;5043260;28;20148;-84
2021/06/08 11:12:16;;;;;;;5.65;3.55;;;;;;;42.85;16.74;102252.69;5019320;28;20048;-83
2021/06/08 11:14:55;;;;;;;9.32;5.32;;;;;;;41.98;17.34;102249.03;5023487;28;20057;-83
2021/06/08 11:17:30;;;;;;;8.07;4.75;;;;;;;41.37;18.03;102258.47;5037986;28;20076;-83
2021/06/08 11:20:21;;;;;;;6.93;3.72;;;;;;;41.22;18.53;102266.00;5032636;28;20215;-84
2021/06/08 11:22:59;;;;;;;4.50;3.45;;;;;;;40.62;19.37;102261.53;5019332;28;20099;-85
2021/06/08 11:25:43;;;;;;;6.65;4.10;;;;;;;39.90;19.47;102263.06;5021458;28;20111;-85
2021/06/08 11:28:15;;;;;;;8.80;3.88;;;;;;;41.72;19.08;102264.34;5037409;28;20104;-85
2021/06/08 11:30:52;;;;;;;6.68;3.80;;;;;;;42.17;17.47;102259.72;5021153;28;20058;-85
2021/06/08 11:33:34;;;;;;;5.28;3.47;;;;;;;44.16;16.67;102257.47;5036673;28;20109;-85
2021/06/08 11:36:24;;;;;;;4.85;3.70;;;;;;;44.35;15.41;102260.09;5018381;28;20115;-86
2021/06/08 11:39:21;;;;;;;8.55;3.95;;;;;;;41.99;17.63;102256.09;5037574;28;20052;-87
2021/06/08 11:42:03;;;;;;;8.68;3.58;;;;;;;41.56;18.55;102254.03;5037556;28;20183;-85
2021/06/08 11:44:34;;;;;;;5.30;3.95;;;;;;;41.49;18.27;102253.25;5038668;28;20327;-86